createdAt,value
2019-03-12T00:01:20.139Z,100171.14
2019-03-12T00:03:48.080Z,100175.67
2019-03-12T00:06:16.259Z,100175.22
2019-03-12T00:08:46.248Z,100175.59
2019-03-12T00:11:14.393Z,100182.50
2019-03-12T00:13:45.119Z,100185.42
2019-03-12T00:16:13.226Z,100196.44
2019-03-12T00:18:41.209Z,100198.84
2019-03-12T00:21:11.339Z,100197.54
2019-03-12T00:23:40.181Z,100202.83
2019-03-12T00:26:10.953Z,100203.05
2019-03-12T00:28:38.933Z,100207.63
2019-03-12T00:31:07.060Z,100215.44
2019-03-12T00:33:37.694Z,100222.67
2019-03-12T00:36:05.731Z,100210.41
2019-03-12T00:38:33.632Z,100218.75
2019-03-12T00:41:01.765Z,100228.05
2019-03-12T00:43:29.772Z,100233.56
2019-03-12T00:45:59.817Z,100237.48
2019-03-12T00:48:27.929Z,100239.94
2019-03-12T00:50:55.913Z,100234.86
2019-03-12T00:53:24.024Z,100241.30
2019-03-12T00:55:51.887Z,100257.00
2019-03-12T00:58:21.950Z,100255.53
2019-03-12T01:00:52.617Z,100256.96
2019-03-12T01:03:21.219Z,100265.55
2019-03-12T01:05:49.342Z,100265.14
2019-03-12T01:08:17.318Z,100264.33
2019-03-12T01:10:45.441Z,100271.48
2019-03-12T01:13:17.548Z,100269.97
2019-03-12T01:15:48.291Z,100275.53
2019-03-12T01:18:18.879Z,100257.37
2019-03-12T01:20:49.599Z,100263.14
2019-03-12T01:23:17.631Z,100266.16
2019-03-12T01:25:45.932Z,100265.14
2019-03-12T01:28:14.070Z,100271.48
2019-03-12T01:30:43.264Z,100272.83
2019-03-12T01:33:13.854Z,100279.73
2019-03-12T01:35:41.933Z,100282.20
2019-03-12T01:38:10.078Z,100297.70
2019-03-12T01:40:38.161Z,100294.06
2019-03-12T01:43:06.219Z,100295.81
2019-03-12T01:45:37.486Z,100293.77
2019-03-12T01:48:05.512Z,100296.63
2019-03-12T01:50:36.533Z,100304.08
2019-03-12T01:53:04.558Z,100307.52
2019-03-12T01:55:32.633Z,100313.48
2019-03-12T01:58:03.283Z,100317.70
2019-03-12T02:00:35.759Z,100321.99
2019-03-12T02:03:04.996Z,100328.91
2019-03-12T02:05:34.365Z,100329.36
2019-03-12T02:08:02.368Z,100326.90
2019-03-12T02:10:33.474Z,100348.63
2019-03-12T02:13:01.532Z,100351.73
2019-03-12T02:15:29.741Z,100347.80
2019-03-12T02:17:57.760Z,100358.14
2019-03-12T02:20:28.424Z,100366.45
2019-03-12T02:22:56.571Z,100361.72
2019-03-12T02:25:27.460Z,100359.81
2019-03-12T02:27:55.754Z,100369.37
2019-03-12T02:30:24.076Z,100362.52
2019-03-12T02:32:52.127Z,100378.14
2019-03-12T02:35:21.700Z,100386.98
2019-03-12T02:37:52.393Z,100386.78
2019-03-12T02:40:20.386Z,100388.47
2019-03-12T02:42:48.528Z,100386.13
2019-03-12T02:45:16.707Z,100384.45
2019-03-12T02:47:44.629Z,100394.35
2019-03-12T02:50:15.554Z,100400.19
2019-03-12T02:52:43.729Z,100400.36
2019-03-12T02:55:12.078Z,100408.80
2019-03-12T02:57:40.289Z,100417.88
2019-03-12T03:00:14.431Z,100422.89
2019-03-12T03:02:42.491Z,100418.85
2019-03-12T03:05:10.708Z,100421.92
2019-03-12T03:08:07.129Z,100431.03
2019-03-12T03:10:35.206Z,100435.19
2019-03-12T03:13:04.140Z,100433.25
2019-03-12T03:15:50.826Z,100439.85
2019-03-12T03:18:18.836Z,100431.66
2019-03-12T03:20:46.937Z,100446.88
2019-03-12T03:23:14.977Z,100456.05
2019-03-12T03:25:43.222Z,100461.45
2019-03-12T03:28:11.350Z,100464.45
2019-03-12T03:30:39.481Z,100465.36
2019-03-12T03:33:10.064Z,100468.66
2019-03-12T03:35:40.845Z,100477.45
2019-03-12T03:38:11.313Z,100478.30
2019-03-12T03:40:42.121Z,100480.38
2019-03-12T03:43:12.869Z,100480.30
2019-03-12T03:45:41.007Z,100482.33
2019-03-12T03:48:09.044Z,100483.08
2019-03-12T03:50:37.133Z,100489.34
2019-03-12T03:53:05.270Z,100489.34
2019-03-12T03:55:33.304Z,100490.16
2019-03-12T03:58:01.403Z,100496.23
2019-03-12T04:00:29.502Z,100495.38
2019-03-12T04:02:57.940Z,100499.97
2019-03-12T04:05:25.971Z,100499.70
2019-03-12T04:07:54.081Z,100495.89
2019-03-12T04:10:22.087Z,100492.22
2019-03-12T04:12:50.209Z,100492.95
2019-03-12T04:15:18.474Z,100506.16
2019-03-12T04:17:46.566Z,100516.55
2019-03-12T04:20:15.008Z,100511.79
2019-03-12T04:22:43.094Z,100518.23
2019-03-12T04:25:11.914Z,100520.03
2019-03-12T04:27:40.131Z,100529.02
2019-03-12T04:30:09.649Z,100534.25
2019-03-12T04:32:38.074Z,100532.00
2019-03-12T04:35:07.378Z,100536.88
2019-03-12T04:37:35.451Z,100546.30
2019-03-12T04:40:04.141Z,100544.98
2019-03-12T04:42:32.131Z,100552.84
2019-03-12T04:45:00.078Z,100561.56
2019-03-12T04:47:28.319Z,100565.85
2019-03-12T04:49:56.454Z,100569.67
2019-03-12T04:52:24.465Z,100570.13
2019-03-12T04:54:52.502Z,100572.67
2019-03-12T04:57:20.612Z,100566.95
2019-03-12T04:59:48.662Z,100573.41
2019-03-12T05:02:16.848Z,100569.56
2019-03-12T05:04:44.800Z,100573.86
2019-03-12T05:07:13.082Z,100582.09
2019-03-12T05:09:41.099Z,100584.25
2019-03-12T05:12:09.183Z,100594.42
2019-03-12T05:14:42.275Z,100590.42
2019-03-12T05:17:17.669Z,100597.22
2019-03-12T05:19:46.111Z,100602.08
2019-03-12T05:22:15.111Z,100606.76
2019-03-12T05:24:43.048Z,100603.20
2019-03-12T05:27:11.127Z,100621.14
2019-03-12T05:29:39.274Z,100617.41
2019-03-12T05:32:07.532Z,100622.93
2019-03-12T05:34:35.589Z,100628.43
2019-03-12T05:37:03.807Z,100621.44
2019-03-12T05:39:35.915Z,100629.46
2019-03-12T05:42:04.025Z,100631.31
2019-03-12T05:44:32.077Z,100627.77
2019-03-12T05:47:00.184Z,100629.44
2019-03-12T05:49:28.371Z,100643.14
2019-03-12T05:51:57.179Z,100641.11
2019-03-12T05:54:25.138Z,100650.28
2019-03-12T05:56:53.174Z,100635.52
2019-03-12T05:59:21.178Z,100636.75
2019-03-12T06:01:50.006Z,100632.72
2019-03-12T06:04:18.076Z,100636.27
2019-03-12T06:06:46.183Z,100645.06
2019-03-12T06:09:14.153Z,100646.38
2019-03-12T06:11:41.998Z,100644.36
2019-03-12T06:14:10.097Z,100652.53
2019-03-12T06:16:38.174Z,100652.27
2019-03-12T06:19:06.285Z,100655.16
2019-03-12T06:21:34.329Z,100654.72
2019-03-12T06:24:02.507Z,100660.63
2019-03-12T06:26:30.453Z,100658.84
2019-03-12T06:28:58.558Z,100660.14
2019-03-12T06:31:45.114Z,100666.44
2019-03-12T06:34:30.164Z,100667.55
2019-03-12T06:37:23.908Z,100667.25
2019-03-12T06:39:59.694Z,100670.91
2019-03-12T06:43:02.374Z,100680.63
2019-03-12T06:45:39.595Z,100685.50
2019-03-12T06:48:23.556Z,100688.31
2019-03-12T06:51:03.788Z,100696.91
2019-03-12T06:53:49.818Z,100700.27
2019-03-12T06:56:40.577Z,100691.01
2019-03-12T06:59:25.661Z,100703.16
2019-03-12T07:02:04.629Z,100712.98
2019-03-12T07:04:40.240Z,100710.01
2019-03-12T07:07:27.769Z,100714.77
2019-03-12T07:10:18.014Z,100711.14
2019-03-12T07:13:07.795Z,100725.54
2019-03-12T07:15:44.168Z,100724.61
2019-03-12T07:18:37.462Z,100737.70
2019-03-12T07:21:24.329Z,100733.86
2019-03-12T07:24:00.127Z,100737.71
2019-03-12T07:26:52.429Z,100737.78
2019-03-12T07:29:39.925Z,100745.75
2019-03-12T07:32:30.526Z,100743.05
2019-03-12T07:35:24.083Z,100732.00
2019-03-12T07:38:03.523Z,100736.80
2019-03-12T07:41:22.831Z,100729.72
2019-03-12T07:44:10.668Z,100737.22
2019-03-12T07:46:47.801Z,100743.38
2019-03-12T07:49:35.192Z,100737.20
2019-03-12T07:52:25.296Z,100734.03
2019-03-12T07:55:12.931Z,100740.58
2019-03-12T07:57:50.952Z,100734.66
2019-03-12T08:00:41.463Z,100744.75
2019-03-12T08:03:22.999Z,100740.78
2019-03-12T08:06:02.683Z,100748.02
2019-03-12T08:08:56.204Z,100758.43
2019-03-12T08:11:40.351Z,100754.98
2019-03-12T08:14:42.972Z,100753.17
2019-03-12T08:17:23.296Z,100747.62
2019-03-12T08:20:16.972Z,100749.52
2019-03-12T08:23:00.579Z,100749.44
2019-03-12T08:25:53.951Z,100752.23
2019-03-12T08:28:30.110Z,100753.44
2019-03-12T08:31:17.740Z,100760.16
2019-03-12T08:34:10.325Z,100756.39
2019-03-12T08:36:48.123Z,100743.66
2019-03-12T08:39:38.330Z,100747.85
2019-03-12T08:42:18.730Z,100742.76
2019-03-12T08:45:01.286Z,100746.34
2019-03-12T08:47:40.528Z,100737.34
2019-03-12T08:50:35.007Z,100745.09
2019-03-12T08:53:15.450Z,100739.21
2019-03-12T08:55:56.052Z,100746.02
2019-03-12T08:58:40.002Z,100749.43
2019-03-12T09:40:25.510Z,100709.32
2019-03-12T09:43:11.331Z,100707.27
2019-03-12T09:45:57.601Z,100711.81
2019-03-12T09:48:31.394Z,100714.98
2019-03-12T09:51:05.549Z,100714.43
2019-03-12T09:53:53.132Z,100702.77
2019-03-12T09:56:49.299Z,100710.53
2019-03-12T09:59:29.914Z,100717.97
2019-03-12T10:02:16.234Z,100717.47
2019-03-12T10:04:59.738Z,100715.61
2019-03-12T10:07:48.229Z,100717.20
2019-03-12T10:10:43.947Z,100715.80
2019-03-12T10:13:27.238Z,100708.39
2019-03-12T10:16:20.550Z,100703.17
2019-03-12T10:19:14.242Z,100707.39
2019-03-12T10:22:00.291Z,100716.55
2019-03-12T10:27:51.911Z,100709.84
2019-03-12T10:30:28.126Z,100703.12
2019-03-12T10:33:27.729Z,100703.76
2019-03-12T10:36:06.761Z,100699.81
2019-03-12T10:39:42.782Z,100708.34
2019-03-12T10:42:18.599Z,100704.55
2019-03-12T10:45:11.696Z,100695.36
2019-03-12T10:47:40.121Z,100690.50
2019-03-12T10:50:08.451Z,100698.40
2019-03-12T10:52:36.498Z,100687.09
2019-03-12T10:55:12.973Z,100685.55
2019-03-12T10:57:34.871Z,100682.91
2019-03-12T11:00:03.956Z,100685.88
2019-03-12T11:02:32.032Z,100679.78
2019-03-12T11:05:00.184Z,100676.33
2019-03-12T11:07:28.563Z,100679.30
2019-03-12T11:09:56.598Z,100677.48
2019-03-12T11:12:24.712Z,100676.30
2019-03-12T11:14:52.730Z,100664.58
2019-03-12T11:17:20.808Z,100675.47
2019-03-12T11:19:48.757Z,100680.95
2019-03-12T11:22:16.780Z,100683.94
2019-03-12T11:24:44.926Z,100681.67
2019-03-12T11:27:13.088Z,100678.45
2019-03-12T11:29:41.109Z,100668.04
2019-03-12T11:32:09.439Z,100670.08
2019-03-12T11:34:38.725Z,100669.38
2019-03-12T11:37:07.079Z,100673.30
2019-03-12T11:39:35.276Z,100662.89
2019-03-12T11:42:03.385Z,100660.28
2019-03-12T11:44:31.307Z,100664.72
2019-03-12T11:46:59.443Z,100660.41
2019-03-12T11:49:27.465Z,100652.42
2019-03-12T11:51:55.619Z,100652.16
2019-03-12T11:54:36.582Z,100642.45
2019-03-12T11:57:04.748Z,100642.83
2019-03-12T11:59:32.877Z,100638.75
2019-03-12T12:02:01.214Z,100637.17
2019-03-12T12:04:29.125Z,100623.98
2019-03-12T12:06:57.693Z,100632.14
2019-03-12T12:09:25.766Z,100626.42
2019-03-12T12:11:53.899Z,100616.84
2019-03-12T12:14:21.928Z,100602.23
2019-03-12T12:16:50.004Z,100600.77
2019-03-12T12:19:18.693Z,100603.66
2019-03-12T12:21:46.821Z,100614.11
2019-03-12T12:24:14.768Z,100615.98
2019-03-12T12:26:44.726Z,100610.16
2019-03-12T12:29:13.801Z,100615.12
2019-03-12T12:31:43.908Z,100602.38
2019-03-12T12:34:11.883Z,100604.35
2019-03-12T12:36:39.828Z,100596.72
2019-03-12T12:39:08.083Z,100594.27
2019-03-12T12:41:36.159Z,100585.45
2019-03-12T12:44:04.576Z,100586.84
2019-03-12T12:46:32.613Z,100580.24
2019-03-12T12:49:00.652Z,100579.23
2019-03-12T12:51:28.843Z,100564.52
2019-03-12T12:53:56.935Z,100562.09
2019-03-12T12:56:26.328Z,100550.45
2019-03-12T12:58:54.451Z,100549.36
2019-03-12T13:01:24.263Z,100542.50
2019-03-12T13:03:52.356Z,100541.69
2019-03-12T13:06:20.383Z,100547.74
2019-03-12T13:08:48.841Z,100531.65
2019-03-12T13:11:17.109Z,100535.63
2019-03-12T13:13:45.144Z,100536.53
2019-03-12T13:16:24.415Z,100529.44
2019-03-12T13:18:43.142Z,100523.98
2019-03-12T13:21:11.706Z,100531.25
2019-03-12T13:23:39.946Z,100532.73
2019-03-12T13:26:07.749Z,100527.39
2019-03-12T13:28:35.723Z,100531.70
2019-03-12T13:31:03.748Z,100535.23
2019-03-12T13:33:31.742Z,100524.83
2019-03-12T13:36:03.617Z,100515.68
2019-03-12T13:38:44.732Z,100510.57
2019-03-12T13:41:03.535Z,100524.11
2019-03-12T13:43:32.017Z,100510.84
2019-03-12T13:46:08.171Z,100504.57
2019-03-12T13:48:39.344Z,100499.69
2019-03-12T13:51:09.518Z,100499.76
2019-03-12T13:53:39.517Z,100491.81
2019-03-12T13:56:07.663Z,100498.44
2019-03-12T13:58:38.263Z,100492.97
2019-03-12T14:01:06.574Z,100479.91
2019-03-12T14:03:34.760Z,100488.34
2019-03-12T14:06:02.883Z,100497.27
2019-03-12T14:08:31.912Z,100484.06
2019-03-12T14:11:00.085Z,100478.42
2019-03-12T14:13:28.191Z,100475.48
2019-03-12T14:15:56.244Z,100469.60
2019-03-12T14:18:24.413Z,100459.30
2019-03-12T14:21:04.856Z,100454.69
2019-03-12T14:23:38.721Z,100463.90
2019-03-12T14:26:06.817Z,100451.77
2019-03-12T14:28:35.869Z,100453.50
2019-03-12T14:31:03.990Z,100452.11
2019-03-12T14:33:37.241Z,100448.56
2019-03-12T14:36:05.462Z,100449.33
2019-03-12T14:38:33.578Z,100448.77
2019-03-12T14:41:01.835Z,100448.09
2019-03-12T14:43:29.941Z,100449.15
2019-03-12T14:45:58.297Z,100448.69
2019-03-12T14:48:37.949Z,100432.74
2019-03-12T14:51:10.729Z,100441.90
2019-03-12T14:53:39.481Z,100437.81
2019-03-12T14:56:07.421Z,100434.23
2019-03-12T14:58:35.627Z,100424.73
2019-03-12T15:01:03.741Z,100426.08
2019-03-12T15:03:31.917Z,100429.78
2019-03-12T15:06:00.023Z,100421.76
2019-03-12T15:08:28.113Z,100417.49
2019-03-12T15:10:56.559Z,100413.45
2019-03-12T15:13:24.550Z,100408.55
2019-03-12T15:15:52.608Z,100405.23
2019-03-12T15:18:20.538Z,100391.58
2019-03-12T15:20:48.630Z,100395.12
2019-03-12T15:23:16.764Z,100384.97
2019-03-12T15:25:44.761Z,100383.50
2019-03-12T15:28:12.702Z,100375.58
2019-03-12T15:30:40.794Z,100367.30
2019-03-12T15:33:08.652Z,100360.27
2019-03-12T15:35:37.013Z,100362.06
2019-03-12T15:38:05.042Z,100350.78
2019-03-12T15:40:33.200Z,100352.39
2019-03-12T15:43:01.246Z,100348.00
2019-03-12T15:45:29.297Z,100335.13
2019-03-12T15:47:57.421Z,100346.70
2019-03-12T15:50:25.559Z,100337.08
2019-03-12T15:52:54.152Z,100338.25
2019-03-12T15:55:23.148Z,100338.95
2019-03-12T15:57:51.085Z,100331.70
2019-03-12T16:00:19.295Z,100331.70
2019-03-12T16:02:47.508Z,100326.77
2019-03-12T16:05:15.603Z,100318.77
2019-03-12T16:07:44.556Z,100324.83
2019-03-12T16:10:12.767Z,100324.13
2019-03-12T16:12:40.927Z,100322.97
2019-03-12T16:15:09.101Z,100317.77
2019-03-12T16:17:37.226Z,100317.18
2019-03-12T16:20:06.078Z,100321.09
2019-03-12T16:22:34.000Z,100315.52
2019-03-12T16:25:02.100Z,100313.56
2019-03-12T16:27:30.183Z,100311.00
2019-03-12T16:29:58.401Z,100305.29
2019-03-12T16:32:26.473Z,100304.71
2019-03-12T16:34:54.472Z,100301.60
2019-03-12T16:37:26.452Z,100305.60
2019-03-12T16:39:54.477Z,100293.83
2019-03-12T16:42:34.243Z,100293.81
2019-03-12T16:44:52.623Z,100292.14
2019-03-12T16:47:20.736Z,100288.10
2019-03-12T16:49:48.843Z,100284.17
2019-03-12T16:52:16.923Z,100283.56
2019-03-12T16:54:44.971Z,100286.88
2019-03-12T16:57:13.074Z,100279.94
2019-03-12T16:59:41.042Z,100284.77
2019-03-12T17:02:09.194Z,100286.21
2019-03-12T17:04:37.294Z,100280.70
2019-03-12T17:07:05.475Z,100284.91
2019-03-12T17:09:33.386Z,100274.09
2019-03-12T17:12:01.469Z,100276.30
2019-03-12T17:14:38.818Z,100269.84
2019-03-12T17:16:59.521Z,100279.02
2019-03-12T17:19:27.579Z,100272.38
2019-03-12T17:21:55.580Z,100270.27
2019-03-12T17:24:23.582Z,100263.58
2019-03-12T17:26:51.716Z,100260.05
2019-03-12T17:29:21.887Z,100261.88
2019-03-12T17:31:49.981Z,100262.54
2019-03-12T17:34:19.200Z,100258.80
2019-03-12T17:36:47.283Z,100254.13
2019-03-12T17:39:18.359Z,100251.19
2019-03-12T17:41:46.538Z,100243.57
2019-03-12T17:44:14.659Z,100243.46
2019-03-12T17:46:42.926Z,100241.95
2019-03-12T17:49:12.672Z,100239.61
2019-03-12T17:51:41.039Z,100239.16
2019-03-12T17:54:09.070Z,100232.11
2019-03-12T17:56:37.194Z,100226.14
2019-03-12T17:59:05.233Z,100227.61
2019-03-12T18:01:33.432Z,100215.09
2019-03-12T18:04:01.399Z,100215.72
2019-03-12T18:08:17.752Z,100209.22
2019-03-12T18:10:56.616Z,100214.91
2019-03-12T18:13:26.350Z,100209.75
2019-03-12T18:15:54.477Z,100209.42
2019-03-12T18:19:34.964Z,100198.78
2019-03-12T18:22:03.043Z,100200.83
2019-03-12T18:24:31.189Z,100195.55
2019-03-12T18:26:59.212Z,100191.28
2019-03-12T18:29:27.252Z,100180.50
2019-03-12T18:31:55.262Z,100178.12
2019-03-12T18:34:23.290Z,100182.45
2019-03-12T18:36:51.371Z,100170.50
2019-03-12T18:39:19.409Z,100165.02
2019-03-12T18:41:55.936Z,100158.31
2019-03-12T18:44:25.531Z,100148.87
2019-03-12T18:46:53.580Z,100151.88
2019-03-12T18:49:21.518Z,100151.27
2019-03-12T18:51:51.523Z,100142.89
2019-03-12T18:54:19.475Z,100136.23
2019-03-12T18:56:47.476Z,100143.40
2019-03-12T18:59:15.507Z,100142.20
2019-03-12T19:01:43.686Z,100142.47
2019-03-12T19:04:11.498Z,100140.30
2019-03-12T19:06:40.307Z,100133.27
2019-03-12T19:09:08.828Z,100132.30
2019-03-12T19:11:37.563Z,100121.09
2019-03-12T19:14:05.845Z,100127.54
2019-03-12T19:16:33.944Z,100127.41
2019-03-12T19:19:01.975Z,100118.95
2019-03-12T19:21:29.984Z,100110.11
2019-03-12T19:23:58.065Z,100110.80
2019-03-12T19:26:26.309Z,100112.14
2019-03-12T19:28:54.371Z,100101.14
2019-03-12T19:31:29.141Z,100088.65
2019-03-12T19:34:00.803Z,100090.17
2019-03-12T19:36:31.253Z,100082.46
2019-03-12T19:38:59.409Z,100071.64
2019-03-12T19:41:27.486Z,100077.03
2019-03-12T19:43:56.109Z,100065.45
2019-03-12T19:46:24.725Z,100070.43
2019-03-12T19:48:53.066Z,100055.89
2019-03-12T19:51:21.131Z,100053.38
2019-03-12T19:53:50.259Z,100049.92
2019-03-12T19:56:18.291Z,100050.63
2019-03-12T19:58:46.416Z,100051.48
2019-03-12T20:01:14.962Z,100049.19
2019-03-12T20:03:43.342Z,100048.00
2019-03-12T20:06:11.445Z,100027.84
2019-03-12T20:08:39.611Z,100038.47
2019-03-12T20:11:54.417Z,100031.06
2019-03-12T20:14:49.760Z,100023.30
2019-03-12T20:17:43.920Z,100022.36
2019-03-12T20:20:48.946Z,100017.59
2019-03-12T20:24:01.586Z,100015.67
2019-03-12T20:26:59.090Z,100011.38
2019-03-12T20:30:14.079Z,100000.41
2019-03-12T20:33:18.529Z,99999.55
2019-03-12T20:36:26.747Z,99994.44
2019-03-12T20:39:36.354Z,99981.33
2019-03-12T20:43:07.261Z,99974.14
2019-03-12T20:46:12.510Z,99965.80
2019-03-12T20:49:16.411Z,99954.02
2019-03-12T20:52:34.957Z,99941.38
2019-03-12T20:55:51.933Z,99932.67
2019-03-12T20:59:03.160Z,99914.55
2019-03-12T21:02:11.095Z,99908.34
2019-03-12T21:05:34.735Z,99910.14
2019-03-12T21:08:55.906Z,99893.33
2019-03-12T21:12:16.293Z,99888.29
2019-03-12T21:15:27.224Z,99875.89
2019-03-12T21:18:31.233Z,99870.41
2019-03-12T21:21:45.591Z,99853.95
2019-03-12T21:24:46.014Z,99855.52
2019-03-12T21:28:00.494Z,99841.78
2019-03-12T21:30:28.617Z,99834.66
2019-03-12T21:32:56.680Z,99822.85
2019-03-12T21:35:24.920Z,99817.96
2019-03-12T21:37:53.259Z,99803.42
2019-03-12T21:40:21.394Z,99803.75
2019-03-12T21:42:49.538Z,99799.35
2019-03-12T21:45:17.770Z,99790.64
2019-03-12T21:47:45.894Z,99791.13
2019-03-12T21:50:14.153Z,99776.00
2019-03-12T21:52:42.237Z,99770.04
2019-03-12T21:55:10.662Z,99770.04
2019-03-12T21:57:38.879Z,99766.46
2019-03-12T22:00:10.898Z,99755.47
2019-03-12T22:02:39.154Z,99745.83
2019-03-12T22:05:07.219Z,99740.80
2019-03-12T22:07:35.232Z,99729.39
2019-03-12T22:10:03.401Z,99721.16
2019-03-12T22:12:31.534Z,99716.98
2019-03-12T22:14:59.473Z,99706.28
2019-03-12T22:17:27.673Z,99704.12
2019-03-12T22:19:55.710Z,99695.04
2019-03-12T22:22:30.272Z,99688.95
2019-03-12T22:25:01.585Z,99674.52
2019-03-12T22:27:33.306Z,99672.50
2019-03-12T22:30:04.114Z,99673.59
2019-03-12T22:32:38.113Z,99659.02
2019-03-12T22:35:09.401Z,99647.38
2019-03-12T22:37:40.464Z,99636.38
2019-03-12T22:40:11.395Z,99635.41
2019-03-12T22:42:40.625Z,99619.17
2019-03-12T22:45:09.229Z,99623.01
2019-03-12T22:47:37.452Z,99608.77
2019-03-12T22:50:08.437Z,99598.97
2019-03-12T22:52:39.281Z,99607.56
2019-03-12T22:55:10.662Z,99595.38
2019-03-12T22:57:41.256Z,99587.02
2019-03-12T23:00:10.662Z,99586.81
2019-03-12T23:02:38.923Z,99582.02
2019-03-12T23:05:07.360Z,99577.11
2019-03-12T23:07:38.696Z,99569.05
2019-03-12T23:10:09.812Z,99563.90
2019-03-12T23:12:40.794Z,99563.11
2019-03-12T23:15:10.084Z,99546.50
2019-03-12T23:17:38.137Z,99545.55
2019-03-12T23:20:07.687Z,99547.22
2019-03-12T23:22:35.545Z,99534.59
2019-03-12T23:25:14.234Z,99530.95
2019-03-12T23:27:42.846Z,99526.32
2019-03-12T23:30:12.272Z,99520.52
2019-03-12T23:32:41.532Z,99514.22
2019-03-12T23:35:09.873Z,99507.13
2019-03-12T23:37:37.986Z,99503.12
2019-03-12T23:40:06.302Z,99483.62
2019-03-12T23:42:34.242Z,99479.86
2019-03-12T23:45:02.194Z,99465.89
2019-03-12T23:47:31.102Z,99465.34
2019-03-12T23:49:59.136Z,99462.37
2019-03-12T23:52:27.035Z,99466.04
2019-03-12T23:54:55.054Z,99464.20
2019-03-12T23:57:23.588Z,99456.27
2019-03-12T23:59:51.356Z,99448.91
